sensor_id;sensor_type;location;lat;lon;timestamp;temperature;humidity
4386;DHT22;2207;53.540;10.042;2022-09-17T00:01:14;13.10;99.90
4386;DHT22;2207;53.540;10.042;2022-09-17T00:03:42;13.10;99.90
4386;DHT22;2207;53.540;10.042;2022-09-17T00:06:10;13.20;99.90
4386;DHT22;2207;53.540;10.042;2022-09-17T00:08:38;13.20;99.90
4386;DHT22;2207;53.540;10.042;2022-09-17T00:11:05;13.20;99.90
4386;DHT22;2207;53.540;10.042;2022-09-17T00:13:33;13.20;99.90
4386;DHT22;2207;53.540;10.042;2022-09-17T00:15:59;13.20;99.90
4386;DHT22;2207;53.540;10.042;2022-09-17T00:18:26;13.20;99.90
4386;DHT22;2207;53.540;10.042;2022-09-17T00:20:54;13.00;99.90
4386;DHT22;2207;53.540;10.042;2022-09-17T00:23:21;12.90;99.90
4386;DHT22;2207;53.540;10.042;2022-09-17T00:25:47;12.90;99.90
4386;DHT22;2207;53.540;10.042;2022-09-17T00:28:14;12.90;99.90
4386;DHT22;2207;53.540;10.042;2022-09-17T00:30:41;13.00;99.90
4386;DHT22;2207;53.540;10.042;2022-09-17T00:33:09;12.90;99.90
4386;DHT22;2207;53.540;10.042;2022-09-17T00:35:36;12.90;99.90
4386;DHT22;2207;53.540;10.042;2022-09-17T00:38:04;13.00;99.90
4386;DHT22;2207;53.540;10.042;2022-09-17T00:40:31;13.00;99.90
4386;DHT22;2207;53.540;10.042;2022-09-17T00:42:58;13.10;99.90
4386;DHT22;2207;53.540;10.042;2022-09-17T00:45:24;13.10;99.90
4386;DHT22;2207;53.540;10.042;2022-09-17T00:47:54;13.10;99.90
4386;DHT22;2207;53.540;10.042;2022-09-17T00:50:24;13.10;99.90
4386;DHT22;2207;53.540;10.042;2022-09-17T00:52:52;13.00;99.90
4386;DHT22;2207;53.540;10.042;2022-09-17T00:55:21;13.10;99.90
4386;DHT22;2207;53.540;10.042;2022-09-17T00:57:49;12.90;99.90
4386;DHT22;2207;53.540;10.042;2022-09-17T01:00:16;12.80;99.90
4386;DHT22;2207;53.540;10.042;2022-09-17T01:02:43;12.70;99.90
4386;DHT22;2207;53.540;10.042;2022-09-17T01:05:10;12.60;99.90
4386;DHT22;2207;53.540;10.042;2022-09-17T01:07:42;12.60;99.90
4386;DHT22;2207;53.540;10.042;2022-09-17T01:10:14;12.60;99.90
4386;DHT22;2207;53.540;10.042;2022-09-17T01:12:48;12.60;99.90
4386;DHT22;2207;53.540;10.042;2022-09-17T01:15:23;12.60;99.90
4386;DHT22;2207;53.540;10.042;2022-09-17T01:17:56;12.40;99.90
4386;DHT22;2207;53.540;10.042;2022-09-17T01:26:01;12.20;99.90
4386;DHT22;2207;53.540;10.042;2022-09-17T01:28:34;12.20;99.90
4386;DHT22;2207;53.540;10.042;2022-09-17T01:33:54;12.10;99.90
4386;DHT22;2207;53.540;10.042;2022-09-17T01:36:31;12.10;99.90
4386;DHT22;2207;53.540;10.042;2022-09-17T01:39:01;12.20;99.90
4386;DHT22;2207;53.540;10.042;2022-09-17T01:41:30;12.20;99.90
4386;DHT22;2207;53.540;10.042;2022-09-17T01:44:00;12.30;99.90
4386;DHT22;2207;53.540;10.042;2022-09-17T01:46:29;12.30;99.90
4386;DHT22;2207;53.540;10.042;2022-09-17T01:48:59;12.30;99.90
4386;DHT22;2207;53.540;10.042;2022-09-17T01:51:29;12.30;99.90
4386;DHT22;2207;53.540;10.042;2022-09-17T01:53:57;12.30;99.90
4386;DHT22;2207;53.540;10.042;2022-09-17T01:56:26;12.30;99.90
4386;DHT22;2207;53.540;10.042;2022-09-17T01:58:55;12.40;99.90
4386;DHT22;2207;53.540;10.042;2022-09-17T02:01:23;12.50;99.90
4386;DHT22;2207;53.540;10.042;2022-09-17T02:03:52;12.50;99.90
4386;DHT22;2207;53.540;10.042;2022-09-17T02:06:22;12.50;99.90
4386;DHT22;2207;53.540;10.042;2022-09-17T02:08:52;12.60;99.90
4386;DHT22;2207;53.540;10.042;2022-09-17T02:11:20;12.60;99.90
4386;DHT22;2207;53.540;10.042;2022-09-17T02:13:49;12.50;99.90
4386;DHT22;2207;53.540;10.042;2022-09-17T02:16:21;12.40;99.90
4386;DHT22;2207;53.540;10.042;2022-09-17T02:18:48;12.30;99.90
4386;DHT22;2207;53.540;10.042;2022-09-17T02:21:16;12.20;99.90
4386;DHT22;2207;53.540;10.042;2022-09-17T02:23:49;12.10;99.90
4386;DHT22;2207;53.540;10.042;2022-09-17T02:26:18;12.10;99.90
4386;DHT22;2207;53.540;10.042;2022-09-17T02:28:46;12.00;99.90
4386;DHT22;2207;53.540;10.042;2022-09-17T02:31:13;12.10;99.90
4386;DHT22;2207;53.540;10.042;2022-09-17T02:33:40;12.20;99.90
4386;DHT22;2207;53.540;10.042;2022-09-17T02:36:07;12.30;99.90
4386;DHT22;2207;53.540;10.042;2022-09-17T02:38:36;12.30;99.90
4386;DHT22;2207;53.540;10.042;2022-09-17T02:41:09;12.40;99.90
4386;DHT22;2207;53.540;10.042;2022-09-17T02:43:40;12.40;99.90
4386;DHT22;2207;53.540;10.042;2022-09-17T02:46:16;12.40;99.90
4386;DHT22;2207;53.540;10.042;2022-09-17T02:48:54;12.50;99.90
4386;DHT22;2207;53.540;10.042;2022-09-17T02:51:30;12.40;99.90
4386;DHT22;2207;53.540;10.042;2022-09-17T02:54:00;12.40;99.90
4386;DHT22;2207;53.540;10.042;2022-09-17T02:56:35;12.30;99.90
4386;DHT22;2207;53.540;10.042;2022-09-17T02:59:07;12.20;99.90
4386;DHT22;2207;53.540;10.042;2022-09-17T03:01:37;12.20;99.90
4386;DHT22;2207;53.540;10.042;2022-09-17T03:04:05;12.20;99.90
4386;DHT22;2207;53.540;10.042;2022-09-17T03:06:33;12.10;99.90
4386;DHT22;2207;53.540;10.042;2022-09-17T03:09:00;12.10;99.90
4386;DHT22;2207;53.540;10.042;2022-09-17T03:11:29;12.10;99.90
4386;DHT22;2207;53.540;10.042;2022-09-17T03:13:57;12.10;99.90
4386;DHT22;2207;53.540;10.042;2022-09-17T03:16:24;12.20;99.90
4386;DHT22;2207;53.540;10.042;2022-09-17T03:18:50;12.10;99.90
4386;DHT22;2207;53.540;10.042;2022-09-17T03:21:17;12.10;99.90
4386;DHT22;2207;53.540;10.042;2022-09-17T03:23:45;12.10;99.90
4386;DHT22;2207;53.540;10.042;2022-09-17T03:26:11;12.10;99.90
4386;DHT22;2207;53.540;10.042;2022-09-17T03:28:38;12.10;99.90
4386;DHT22;2207;53.540;10.042;2022-09-17T03:31:06;12.20;99.90
4386;DHT22;2207;53.540;10.042;2022-09-17T03:33:33;12.20;99.90
4386;DHT22;2207;53.540;10.042;2022-09-17T03:35:59;12.30;99.90
4386;DHT22;2207;53.540;10.042;2022-09-17T03:38:26;12.20;99.90
4386;DHT22;2207;53.540;10.042;2022-09-17T03:40:56;12.20;99.90
4386;DHT22;2207;53.540;10.042;2022-09-17T03:43:23;12.20;99.90
4386;DHT22;2207;53.540;10.042;2022-09-17T03:45:50;12.30;99.90
4386;DHT22;2207;53.540;10.042;2022-09-17T03:48:20;12.20;99.90
4386;DHT22;2207;53.540;10.042;2022-09-17T03:50:46;12.20;99.90
4386;DHT22;2207;53.540;10.042;2022-09-17T03:53:13;12.20;99.90
4386;DHT22;2207;53.540;10.042;2022-09-17T03:55:40;12.20;99.90
4386;DHT22;2207;53.540;10.042;2022-09-17T03:58:07;12.20;99.90
4386;DHT22;2207;53.540;10.042;2022-09-17T04:00:33;12.10;99.90
4386;DHT22;2207;53.540;10.042;2022-09-17T04:03:01;12.00;99.90
4386;DHT22;2207;53.540;10.042;2022-09-17T04:05:29;12.00;99.90
4386;DHT22;2207;53.540;10.042;2022-09-17T04:07:56;12.00;99.90
4386;DHT22;2207;53.540;10.042;2022-09-17T04:10:22;12.10;99.90
4386;DHT22;2207;53.540;10.042;2022-09-17T04:12:49;12.10;99.90
4386;DHT22;2207;53.540;10.042;2022-09-17T04:15:16;12.20;99.90
4386;DHT22;2207;53.540;10.042;2022-09-17T04:17:42;12.10;99.90
4386;DHT22;2207;53.540;10.042;2022-09-17T04:20:09;12.10;99.90
4386;DHT22;2207;53.540;10.042;2022-09-17T04:22:37;12.10;99.90
4386;DHT22;2207;53.540;10.042;2022-09-17T04:25:04;12.00;99.90
4386;DHT22;2207;53.540;10.042;2022-09-17T04:27:31;12.00;99.90
4386;DHT22;2207;53.540;10.042;2022-09-17T04:29:58;12.00;99.90
4386;DHT22;2207;53.540;10.042;2022-09-17T04:32:25;12.00;99.90
4386;DHT22;2207;53.540;10.042;2022-09-17T04:34:52;12.00;99.90
4386;DHT22;2207;53.540;10.042;2022-09-17T04:37:19;12.00;99.90
4386;DHT22;2207;53.540;10.042;2022-09-17T04:39:47;11.90;99.90
4386;DHT22;2207;53.540;10.042;2022-09-17T04:42:14;11.90;99.90
4386;DHT22;2207;53.540;10.042;2022-09-17T04:44:41;11.90;99.90
4386;DHT22;2207;53.540;10.042;2022-09-17T04:47:07;11.90;99.90
4386;DHT22;2207;53.540;10.042;2022-09-17T04:49:34;11.90;99.90
4386;DHT22;2207;53.540;10.042;2022-09-17T04:52:01;11.90;99.90
4386;DHT22;2207;53.540;10.042;2022-09-17T04:54:27;11.90;99.90
4386;DHT22;2207;53.540;10.042;2022-09-17T04:56:56;11.90;99.90
4386;DHT22;2207;53.540;10.042;2022-09-17T04:59:23;11.90;99.90
4386;DHT22;2207;53.540;10.042;2022-09-17T05:01:49;11.80;99.90
4386;DHT22;2207;53.540;10.042;2022-09-17T05:04:16;11.80;99.90
4386;DHT22;2207;53.540;10.042;2022-09-17T05:06:43;11.80;99.90
4386;DHT22;2207;53.540;10.042;2022-09-17T05:09:10;11.80;99.90
4386;DHT22;2207;53.540;10.042;2022-09-17T05:11:36;11.90;99.90
4386;DHT22;2207;53.540;10.042;2022-09-17T05:14:04;11.90;99.90
4386;DHT22;2207;53.540;10.042;2022-09-17T05:16:31;11.80;99.90
4386;DHT22;2207;53.540;10.042;2022-09-17T05:18:58;11.90;99.90
4386;DHT22;2207;53.540;10.042;2022-09-17T05:21:25;11.90;99.90
4386;DHT22;2207;53.540;10.042;2022-09-17T05:23:52;12.00;99.90
4386;DHT22;2207;53.540;10.042;2022-09-17T05:26:19;12.00;99.90
4386;DHT22;2207;53.540;10.042;2022-09-17T05:28:45;12.00;99.90
4386;DHT22;2207;53.540;10.042;2022-09-17T05:31:14;12.10;99.90
4386;DHT22;2207;53.540;10.042;2022-09-17T05:33:41;12.10;99.90
4386;DHT22;2207;53.540;10.042;2022-09-17T05:36:08;12.10;99.90
4386;DHT22;2207;53.540;10.042;2022-09-17T05:38:35;12.20;99.90
4386;DHT22;2207;53.540;10.042;2022-09-17T05:41:03;12.20;99.90
4386;DHT22;2207;53.540;10.042;2022-09-17T05:43:30;12.20;99.90
4386;DHT22;2207;53.540;10.042;2022-09-17T05:45:59;12.30;99.90
4386;DHT22;2207;53.540;10.042;2022-09-17T05:48:27;12.30;99.90
4386;DHT22;2207;53.540;10.042;2022-09-17T05:50:54;12.40;99.90
4386;DHT22;2207;53.540;10.042;2022-09-17T05:53:21;12.60;99.90
4386;DHT22;2207;53.540;10.042;2022-09-17T05:55:48;12.70;99.90
4386;DHT22;2207;53.540;10.042;2022-09-17T05:58:16;12.70;99.90
4386;DHT22;2207;53.540;10.042;2022-09-17T06:00:43;12.60;99.90
4386;DHT22;2207;53.540;10.042;2022-09-17T06:03:11;12.60;99.90
4386;DHT22;2207;53.540;10.042;2022-09-17T06:05:39;12.70;99.90
4386;DHT22;2207;53.540;10.042;2022-09-17T06:08:06;12.70;99.90
4386;DHT22;2207;53.540;10.042;2022-09-17T06:10:34;12.90;99.90
4386;DHT22;2207;53.540;10.042;2022-09-17T06:13:01;12.90;99.90
4386;DHT22;2207;53.540;10.042;2022-09-17T06:15:28;12.90;99.90
4386;DHT22;2207;53.540;10.042;2022-09-17T06:17:54;12.90;99.90
4386;DHT22;2207;53.540;10.042;2022-09-17T06:20:21;12.70;99.90
4386;DHT22;2207;53.540;10.042;2022-09-17T06:22:49;12.60;99.90
4386;DHT22;2207;53.540;10.042;2022-09-17T06:25:20;12.60;99.90
4386;DHT22;2207;53.540;10.042;2022-09-17T06:27:48;12.50;99.90
4386;DHT22;2207;53.540;10.042;2022-09-17T06:30:14;12.50;99.90
4386;DHT22;2207;53.540;10.042;2022-09-17T06:32:41;12.50;99.90
4386;DHT22;2207;53.540;10.042;2022-09-17T06:35:08;12.50;99.90
4386;DHT22;2207;53.540;10.042;2022-09-17T06:37:35;12.50;99.90
4386;DHT22;2207;53.540;10.042;2022-09-17T06:40:06;12.50;99.90
4386;DHT22;2207;53.540;10.042;2022-09-17T06:42:33;12.50;99.90
4386;DHT22;2207;53.540;10.042;2022-09-17T06:45:00;12.50;99.90
4386;DHT22;2207;53.540;10.042;2022-09-17T06:47:27;12.50;99.90
4386;DHT22;2207;53.540;10.042;2022-09-17T06:49:53;12.80;99.90
4386;DHT22;2207;53.540;10.042;2022-09-17T06:52:21;13.30;99.90
4386;DHT22;2207;53.540;10.042;2022-09-17T06:54:48;13.80;99.90
4386;DHT22;2207;53.540;10.042;2022-09-17T06:57:16;14.00;99.90
4386;DHT22;2207;53.540;10.042;2022-09-17T06:59:42;14.00;99.90
4386;DHT22;2207;53.540;10.042;2022-09-17T07:02:09;13.70;99.90
4386;DHT22;2207;53.540;10.042;2022-09-17T07:04:36;14.10;99.90
4386;DHT22;2207;53.540;10.042;2022-09-17T07:07:03;15.00;99.90
4386;DHT22;2207;53.540;10.042;2022-09-17T07:09:30;15.70;99.90
4386;DHT22;2207;53.540;10.042;2022-09-17T07:11:57;16.30;99.90
4386;DHT22;2207;53.540;10.042;2022-09-17T07:14:25;16.70;99.90
4386;DHT22;2207;53.540;10.042;2022-09-17T07:16:52;17.00;99.90
4386;DHT22;2207;53.540;10.042;2022-09-17T07:19:18;17.20;99.90
4386;DHT22;2207;53.540;10.042;2022-09-17T07:21:47;17.50;99.90
4386;DHT22;2207;53.540;10.042;2022-09-17T07:24:15;17.80;99.90
4386;DHT22;2207;53.540;10.042;2022-09-17T07:26:42;17.80;99.90
4386;DHT22;2207;53.540;10.042;2022-09-17T07:29:08;17.40;99.90
4386;DHT22;2207;53.540;10.042;2022-09-17T07:31:38;16.90;99.90
4386;DHT22;2207;53.540;10.042;2022-09-17T07:34:04;16.60;99.90
4386;DHT22;2207;53.540;10.042;2022-09-17T07:36:31;16.40;99.90
4386;DHT22;2207;53.540;10.042;2022-09-17T07:38:58;16.10;99.90
4386;DHT22;2207;53.540;10.042;2022-09-17T07:41:25;15.80;99.90
4386;DHT22;2207;53.540;10.042;2022-09-17T07:43:52;15.80;99.90
4386;DHT22;2207;53.540;10.042;2022-09-17T07:46:20;15.70;99.90
4386;DHT22;2207;53.540;10.042;2022-09-17T07:48:48;15.80;99.90
4386;DHT22;2207;53.540;10.042;2022-09-17T07:51:16;15.90;99.90
4386;DHT22;2207;53.540;10.042;2022-09-17T07:53:43;16.00;99.90
4386;DHT22;2207;53.540;10.042;2022-09-17T07:56:11;16.00;99.90
4386;DHT22;2207;53.540;10.042;2022-09-17T07:58:40;15.70;99.90
4386;DHT22;2207;53.540;10.042;2022-09-17T08:01:09;15.60;99.90
4386;DHT22;2207;53.540;10.042;2022-09-17T08:03:36;15.40;99.90
4386;DHT22;2207;53.540;10.042;2022-09-17T08:06:06;15.20;99.90
4386;DHT22;2207;53.540;10.042;2022-09-17T08:08:33;15.10;99.90
4386;DHT22;2207;53.540;10.042;2022-09-17T08:11:00;15.00;99.90
4386;DHT22;2207;53.540;10.042;2022-09-17T08:13:27;14.90;99.90
4386;DHT22;2207;53.540;10.042;2022-09-17T08:15:56;14.90;99.90
4386;DHT22;2207;53.540;10.042;2022-09-17T08:18:23;14.90;99.90
4386;DHT22;2207;53.540;10.042;2022-09-17T08:20:49;15.00;99.90
4386;DHT22;2207;53.540;10.042;2022-09-17T08:23:17;15.00;99.90
4386;DHT22;2207;53.540;10.042;2022-09-17T08:25:51;14.70;99.90
4386;DHT22;2207;53.540;10.042;2022-09-17T08:28:18;14.50;99.90
4386;DHT22;2207;53.540;10.042;2022-09-17T08:30:45;14.50;99.90
4386;DHT22;2207;53.540;10.042;2022-09-17T08:33:12;14.40;99.90
4386;DHT22;2207;53.540;10.042;2022-09-17T08:35:39;14.50;99.90
4386;DHT22;2207;53.540;10.042;2022-09-17T08:38:06;14.60;99.90
4386;DHT22;2207;53.540;10.042;2022-09-17T08:40:38;14.60;99.90
4386;DHT22;2207;53.540;10.042;2022-09-17T08:43:10;14.80;99.90
4386;DHT22;2207;53.540;10.042;2022-09-17T08:45:41;15.00;99.90
4386;DHT22;2207;53.540;10.042;2022-09-17T08:48:09;15.40;99.90
4386;DHT22;2207;53.540;10.042;2022-09-17T08:50:37;15.60;99.90
4386;DHT22;2207;53.540;10.042;2022-09-17T08:53:22;15.60;99.90
4386;DHT22;2207;53.540;10.042;2022-09-17T08:55:56;15.70;99.90
4386;DHT22;2207;53.540;10.042;2022-09-17T08:58:41;15.80;99.90
4386;DHT22;2207;53.540;10.042;2022-09-17T09:01:21;15.70;99.90
4386;DHT22;2207;53.540;10.042;2022-09-17T09:04:02;15.70;99.90
4386;DHT22;2207;53.540;10.042;2022-09-17T09:06:33;15.70;99.90
4386;DHT22;2207;53.540;10.042;2022-09-17T09:09:03;15.60;99.90
4386;DHT22;2207;53.540;10.042;2022-09-17T09:11:33;15.60;99.90
4386;DHT22;2207;53.540;10.042;2022-09-17T09:14:05;15.70;99.90
4386;DHT22;2207;53.540;10.042;2022-09-17T09:16:33;15.90;99.90
4386;DHT22;2207;53.540;10.042;2022-09-17T09:19:09;16.00;99.90
4386;DHT22;2207;53.540;10.042;2022-09-17T09:21:44;16.00;99.90
4386;DHT22;2207;53.540;10.042;2022-09-17T09:24:20;16.30;99.90
4386;DHT22;2207;53.540;10.042;2022-09-17T09:26:56;16.20;99.90
4386;DHT22;2207;53.540;10.042;2022-09-17T09:29:34;16.10;99.90
4386;DHT22;2207;53.540;10.042;2022-09-17T09:32:14;15.70;99.90
4386;DHT22;2207;53.540;10.042;2022-09-17T09:34:45;15.70;99.90
4386;DHT22;2207;53.540;10.042;2022-09-17T09:37:18;15.90;99.90
4386;DHT22;2207;53.540;10.042;2022-09-17T09:39:47;16.00;99.90
4386;DHT22;2207;53.540;10.042;2022-09-17T09:42:17;15.60;99.90
4386;DHT22;2207;53.540;10.042;2022-09-17T09:44:48;15.50;99.90
4386;DHT22;2207;53.540;10.042;2022-09-17T09:50:09;15.40;99.90
4386;DHT22;2207;53.540;10.042;2022-09-17T09:52:43;15.50;99.90
4386;DHT22;2207;53.540;10.042;2022-09-17T09:55:18;15.60;99.90
4386;DHT22;2207;53.540;10.042;2022-09-17T09:57:48;15.50;99.90
4386;DHT22;2207;53.540;10.042;2022-09-17T10:00:24;15.60;99.90
4386;DHT22;2207;53.540;10.042;2022-09-17T10:02:53;15.70;99.90
4386;DHT22;2207;53.540;10.042;2022-09-17T10:05:20;15.90;99.90
4386;DHT22;2207;53.540;10.042;2022-09-17T10:07:47;16.10;99.90
4386;DHT22;2207;53.540;10.042;2022-09-17T10:10:14;16.20;99.90
4386;DHT22;2207;53.540;10.042;2022-09-17T10:12:41;16.10;99.90
4386;DHT22;2207;53.540;10.042;2022-09-17T10:15:21;15.90;99.90
4386;DHT22;2207;53.540;10.042;2022-09-17T10:17:48;15.80;99.90
4386;DHT22;2207;53.540;10.042;2022-09-17T10:20:18;15.70;99.90
4386;DHT22;2207;53.540;10.042;2022-09-17T10:22:45;15.90;99.90
4386;DHT22;2207;53.540;10.042;2022-09-17T10:25:28;16.30;99.90
4386;DHT22;2207;53.540;10.042;2022-09-17T10:27:55;16.50;99.90
4386;DHT22;2207;53.540;10.042;2022-09-17T10:30:24;16.70;99.90
4386;DHT22;2207;53.540;10.042;2022-09-17T10:35:37;16.90;99.90
4386;DHT22;2207;53.540;10.042;2022-09-17T10:38:03;17.00;99.90
4386;DHT22;2207;53.540;10.042;2022-09-17T10:40:30;17.10;99.90
4386;DHT22;2207;53.540;10.042;2022-09-17T10:45:56;17.00;99.90
4386;DHT22;2207;53.540;10.042;2022-09-17T10:48:23;17.00;99.90
4386;DHT22;2207;53.540;10.042;2022-09-17T10:50:52;17.00;99.90
4386;DHT22;2207;53.540;10.042;2022-09-17T10:53:20;16.90;99.90
4386;DHT22;2207;53.540;10.042;2022-09-17T10:55:49;16.80;99.90
4386;DHT22;2207;53.540;10.042;2022-09-17T10:58:21;16.90;99.90
4386;DHT22;2207;53.540;10.042;2022-09-17T11:00:52;16.90;99.90
4386;DHT22;2207;53.540;10.042;2022-09-17T11:03:30;16.70;99.90
4386;DHT22;2207;53.540;10.042;2022-09-17T11:06:07;16.50;99.90
4386;DHT22;2207;53.540;10.042;2022-09-17T11:08:41;16.40;99.90
4386;DHT22;2207;53.540;10.042;2022-09-17T11:11:12;16.20;99.90
4386;DHT22;2207;53.540;10.042;2022-09-17T11:13:43;16.30;99.90
4386;DHT22;2207;53.540;10.042;2022-09-17T11:16:23;16.50;99.90
4386;DHT22;2207;53.540;10.042;2022-09-17T11:18:57;16.70;99.90
4386;DHT22;2207;53.540;10.042;2022-09-17T11:21:34;16.80;99.90
4386;DHT22;2207;53.540;10.042;2022-09-17T11:26:49;16.70;99.90
4386;DHT22;2207;53.540;10.042;2022-09-17T11:29:27;16.70;99.90
4386;DHT22;2207;53.540;10.042;2022-09-17T11:31:59;16.40;99.90
4386;DHT22;2207;53.540;10.042;2022-09-17T11:34:29;16.40;99.90
4386;DHT22;2207;53.540;10.042;2022-09-17T11:37:01;16.20;99.90
4386;DHT22;2207;53.540;10.042;2022-09-17T11:39:31;16.20;99.90
4386;DHT22;2207;53.540;10.042;2022-09-17T11:42:00;15.80;99.90
4386;DHT22;2207;53.540;10.042;2022-09-17T11:44:29;15.70;99.90
4386;DHT22;2207;53.540;10.042;2022-09-17T11:46:59;16.20;99.90
4386;DHT22;2207;53.540;10.042;2022-09-17T11:49:28;16.40;99.90
4386;DHT22;2207;53.540;10.042;2022-09-17T11:52:02;16.50;99.90
4386;DHT22;2207;53.540;10.042;2022-09-17T11:54:30;16.30;99.90
4386;DHT22;2207;53.540;10.042;2022-09-17T11:57:02;16.10;99.90
4386;DHT22;2207;53.540;10.042;2022-09-17T11:59:32;16.20;99.90
4386;DHT22;2207;53.540;10.042;2022-09-17T12:02:01;16.60;99.90
4386;DHT22;2207;53.540;10.042;2022-09-17T12:04:31;17.00;99.90
4386;DHT22;2207;53.540;10.042;2022-09-17T12:07:03;17.20;99.90
4386;DHT22;2207;53.540;10.042;2022-09-17T12:09:36;17.10;99.90
4386;DHT22;2207;53.540;10.042;2022-09-17T12:12:04;16.90;99.90
4386;DHT22;2207;53.540;10.042;2022-09-17T12:14:35;16.80;99.90
4386;DHT22;2207;53.540;10.042;2022-09-17T12:17:05;16.80;99.90
4386;DHT22;2207;53.540;10.042;2022-09-17T12:19:39;16.80;99.90
4386;DHT22;2207;53.540;10.042;2022-09-17T12:22:08;17.00;99.90
4386;DHT22;2207;53.540;10.042;2022-09-17T12:24:37;17.30;99.90
4386;DHT22;2207;53.540;10.042;2022-09-17T12:27:07;17.30;99.90
4386;DHT22;2207;53.540;10.042;2022-09-17T12:29:40;17.30;99.90
4386;DHT22;2207;53.540;10.042;2022-09-17T12:32:13;17.20;99.90
4386;DHT22;2207;53.540;10.042;2022-09-17T12:34:45;17.20;99.90
4386;DHT22;2207;53.540;10.042;2022-09-17T12:37:20;17.10;99.90
4386;DHT22;2207;53.540;10.042;2022-09-17T12:39:53;17.00;99.90
4386;DHT22;2207;53.540;10.042;2022-09-17T12:42:24;16.70;99.90
4386;DHT22;2207;53.540;10.042;2022-09-17T12:45:03;16.60;99.90
4386;DHT22;2207;53.540;10.042;2022-09-17T12:47:38;16.60;99.90
4386;DHT22;2207;53.540;10.042;2022-09-17T12:50:14;16.50;99.90
4386;DHT22;2207;53.540;10.042;2022-09-17T12:52:46;16.40;99.90
4386;DHT22;2207;53.540;10.042;2022-09-17T12:55:20;16.50;99.90
4386;DHT22;2207;53.540;10.042;2022-09-17T12:57:50;16.50;99.90
4386;DHT22;2207;53.540;10.042;2022-09-17T13:00:21;16.50;99.90
4386;DHT22;2207;53.540;10.042;2022-09-17T13:02:49;16.40;99.90
4386;DHT22;2207;53.540;10.042;2022-09-17T13:05:30;16.40;99.90
4386;DHT22;2207;53.540;10.042;2022-09-17T13:11:05;16.70;99.90
4386;DHT22;2207;53.540;10.042;2022-09-17T13:13:35;17.30;99.90
4386;DHT22;2207;53.540;10.042;2022-09-17T13:16:06;17.50;99.90
4386;DHT22;2207;53.540;10.042;2022-09-17T13:18:35;17.80;99.90
4386;DHT22;2207;53.540;10.042;2022-09-17T13:21:05;17.80;99.90
4386;DHT22;2207;53.540;10.042;2022-09-17T13:23:38;17.50;99.90
4386;DHT22;2207;53.540;10.042;2022-09-17T13:26:07;17.20;99.90
4386;DHT22;2207;53.540;10.042;2022-09-17T13:28:35;16.80;99.90
4386;DHT22;2207;53.540;10.042;2022-09-17T13:31:02;16.20;99.90
4386;DHT22;2207;53.540;10.042;2022-09-17T13:39:02;14.80;99.90
4386;DHT22;2207;53.540;10.042;2022-09-17T13:41:31;14.60;99.90
4386;DHT22;2207;53.540;10.042;2022-09-17T13:43:59;14.60;99.90
4386;DHT22;2207;53.540;10.042;2022-09-17T13:46:29;14.70;99.90
4386;DHT22;2207;53.540;10.042;2022-09-17T13:48:58;14.80;99.90
4386;DHT22;2207;53.540;10.042;2022-09-17T13:51:44;14.90;99.90
4386;DHT22;2207;53.540;10.042;2022-09-17T13:54:11;15.00;99.90
4386;DHT22;2207;53.540;10.042;2022-09-17T13:56:41;15.30;99.90
4386;DHT22;2207;53.540;10.042;2022-09-17T13:59:11;15.50;99.90
4386;DHT22;2207;53.540;10.042;2022-09-17T14:04:47;15.90;99.90
4386;DHT22;2207;53.540;10.042;2022-09-17T14:07:32;16.00;99.90
4386;DHT22;2207;53.540;10.042;2022-09-17T14:12:52;16.20;99.90
4386;DHT22;2207;53.540;10.042;2022-09-17T14:21:10;15.70;99.90
4386;DHT22;2207;53.540;10.042;2022-09-17T14:23:42;15.40;99.90
4386;DHT22;2207;53.540;10.042;2022-09-17T14:26:11;15.20;99.90
4386;DHT22;2207;53.540;10.042;2022-09-17T14:28:44;15.00;99.90
4386;DHT22;2207;53.540;10.042;2022-09-17T14:31:15;14.90;99.90
4386;DHT22;2207;53.540;10.042;2022-09-17T14:33:43;14.80;99.90
4386;DHT22;2207;53.540;10.042;2022-09-17T14:36:10;14.80;99.90
4386;DHT22;2207;53.540;10.042;2022-09-17T14:38:40;14.90;99.90
4386;DHT22;2207;53.540;10.042;2022-09-17T14:41:15;15.10;99.90
4386;DHT22;2207;53.540;10.042;2022-09-17T14:43:47;15.40;99.90
4386;DHT22;2207;53.540;10.042;2022-09-17T14:46:16;15.70;99.90
4386;DHT22;2207;53.540;10.042;2022-09-17T14:48:45;15.80;99.90
4386;DHT22;2207;53.540;10.042;2022-09-17T14:51:22;15.60;99.90
4386;DHT22;2207;53.540;10.042;2022-09-17T14:56:31;14.80;99.90
4386;DHT22;2207;53.540;10.042;2022-09-17T14:59:00;14.30;99.90
4386;DHT22;2207;53.540;10.042;2022-09-17T15:01:28;14.00;99.90
4386;DHT22;2207;53.540;10.042;2022-09-17T15:04:08;13.70;99.90
4386;DHT22;2207;53.540;10.042;2022-09-17T15:06:35;13.50;99.90
4386;DHT22;2207;53.540;10.042;2022-09-17T15:09:02;13.40;99.90
4386;DHT22;2207;53.540;10.042;2022-09-17T15:11:28;13.30;99.90
4386;DHT22;2207;53.540;10.042;2022-09-17T15:13:55;13.20;99.90
4386;DHT22;2207;53.540;10.042;2022-09-17T15:16:25;13.20;99.90
4386;DHT22;2207;53.540;10.042;2022-09-17T15:18:52;13.20;99.90
4386;DHT22;2207;53.540;10.042;2022-09-17T15:21:23;13.30;99.90
4386;DHT22;2207;53.540;10.042;2022-09-17T15:23:53;13.40;99.90
4386;DHT22;2207;53.540;10.042;2022-09-17T15:26:23;13.50;99.90
4386;DHT22;2207;53.540;10.042;2022-09-17T15:28:52;13.50;99.90
4386;DHT22;2207;53.540;10.042;2022-09-17T15:31:20;13.60;99.90
4386;DHT22;2207;53.540;10.042;2022-09-17T15:33:48;13.70;99.90
4386;DHT22;2207;53.540;10.042;2022-09-17T15:36:17;13.60;99.90
4386;DHT22;2207;53.540;10.042;2022-09-17T15:38:44;13.60;99.90
4386;DHT22;2207;53.540;10.042;2022-09-17T15:41:17;13.60;99.90
4386;DHT22;2207;53.540;10.042;2022-09-17T15:43:45;13.70;99.90
4386;DHT22;2207;53.540;10.042;2022-09-17T15:46:23;13.70;99.90
4386;DHT22;2207;53.540;10.042;2022-09-17T15:48:52;13.80;99.90
4386;DHT22;2207;53.540;10.042;2022-09-17T15:51:23;13.80;99.90
4386;DHT22;2207;53.540;10.042;2022-09-17T15:53:51;13.80;99.90
4386;DHT22;2207;53.540;10.042;2022-09-17T15:56:18;13.80;99.90
4386;DHT22;2207;53.540;10.042;2022-09-17T15:58:51;13.70;99.90
4386;DHT22;2207;53.540;10.042;2022-09-17T16:01:39;13.70;99.90
4386;DHT22;2207;53.540;10.042;2022-09-17T16:04:31;13.80;99.90
4386;DHT22;2207;53.540;10.042;2022-09-17T16:06:59;13.90;99.90
4386;DHT22;2207;53.540;10.042;2022-09-17T16:09:40;14.10;99.90
4386;DHT22;2207;53.540;10.042;2022-09-17T16:12:09;14.10;99.90
4386;DHT22;2207;53.540;10.042;2022-09-17T16:14:36;14.10;99.90
4386;DHT22;2207;53.540;10.042;2022-09-17T16:19:50;14.20;99.90
4386;DHT22;2207;53.540;10.042;2022-09-17T16:22:17;14.20;99.90
4386;DHT22;2207;53.540;10.042;2022-09-17T16:24:44;14.20;99.90
4386;DHT22;2207;53.540;10.042;2022-09-17T16:27:11;14.10;99.90
4386;DHT22;2207;53.540;10.042;2022-09-17T16:29:38;14.10;99.90
4386;DHT22;2207;53.540;10.042;2022-09-17T16:32:06;13.90;99.90
4386;DHT22;2207;53.540;10.042;2022-09-17T16:34:33;13.90;99.90
4386;DHT22;2207;53.540;10.042;2022-09-17T16:37:01;13.80;99.90
4386;DHT22;2207;53.540;10.042;2022-09-17T16:39:28;13.80;99.90
4386;DHT22;2207;53.540;10.042;2022-09-17T16:41:54;13.80;99.90
4386;DHT22;2207;53.540;10.042;2022-09-17T16:44:21;13.70;99.90